Terminal Aerodrome Forecast
Issued by NWS San Angelo, TX

Home | Current Version | Previous Version | Text Only | Print | Product List | Glossary On
Versions: 1 2 3 4 5 6 7 8 9 10 11 12 13 14 15
215
FTUS44 KSJT 251120
TAFABI
TAF
KABI 251120Z 2512/2612 35015G25KT P6SM SCT018 BKN028
     FM251500 01016G23KT P6SM BKN010
      TEMPO 2515/2518 3SM -RA BKN005
     FM252200 36012KT P6SM BKN018
     FM260000 VRB04KT P6SM SCT100=

USA.gov is the U.S. government's official web portal to all federal, state and local government web resources and services.